Aviation Digital Data Service (ADDS)

Output produced by METARs form (1521 UTC 20 March 2019)
found at http://www.aviationweather.gov/metar/data/
 
METAR text: ZJSY 201500Z 07004MPS 9999 SCT020 26/22 Q1012 NOSIG
Conditions at: ZJSY (SANYA/FENGHUANG , CN) observed 1500 UTC 20 March 2019
Temperature: 26.0°C (79°F)
Dewpoint: 22.0°C (72°F) [RH = 79%]
Pressure (altimeter): 29.88 inches Hg (1012.0 mb)
Winds: from the ENE (70 degrees) at 9 MPH (8 knots; 4.1 m/s)
Visibility: 6 or more miles (10+ km)
Ceiling: at least 12,000 feet AGL
Clouds: scattered clouds at 2000 feet AGL
Weather: no significant weather observed at this time

METAR text: ZJSY 201400Z 10003MPS 9999 FEW020 26/23 Q1012 NOSIG
Conditions at: ZJSY (SANYA/FENGHUANG , CN) observed 1400 UTC 20 March 2019
Temperature: 26.0°C (79°F)
Dewpoint: 23.0°C (73°F) [RH = 84%]
Pressure (altimeter): 29.88 inches Hg (1012.0 mb)
Winds: from the E (100 degrees) at 7 MPH (6 knots; 3.1 m/s)
Visibility: 6 or more miles (10+ km)
Ceiling: at least 12,000 feet AGL
Clouds: few clouds at 2000 feet AGL
Weather: no significant weather observed at this time

METAR text: ZJSY 201300Z 12003MPS 090V150 9999 SCT020 27/22 Q1012 NOSIG
Conditions at: ZJSY (SANYA/FENGHUANG , CN) observed 1300 UTC 20 March 2019
Temperature: 27.0°C (81°F)
Dewpoint: 22.0°C (72°F) [RH = 74%]
Pressure (altimeter): 29.88 inches Hg (1012.0 mb)
Winds: from the ESE (120 degrees) at 7 MPH (6 knots; 3.1 m/s)
Visibility: 6 or more miles (10+ km)
Ceiling: at least 12,000 feet AGL
Clouds: scattered clouds at 2000 feet AGL
Weather: no significant weather observed at this time

METAR text: ZJSY 201200Z 13002MPS 090V180 9999 FEW030 27/23 Q1011 NOSIG
Conditions at: ZJSY (SANYA/FENGHUANG , CN) observed 1200 UTC 20 March 2019
Temperature: 27.0°C (81°F)
Dewpoint: 23.0°C (73°F) [RH = 79%]
Pressure (altimeter): 29.85 inches Hg (1011.0 mb)
Winds: from the SE (130 degrees) at 5 MPH (4 knots; 2.1 m/s)
Visibility: 6 or more miles (10+ km)
Ceiling: at least 12,000 feet AGL
Clouds: few clouds at 3000 feet AGL
Weather: no significant weather observed at this time

METAR text: ZJSY 201100Z 15004MPS 120V180 9999 FEW020 27/23 Q1010 NOSIG
Conditions at: ZJSY (SANYA/FENGHUANG , CN) observed 1100 UTC 20 March 2019
Temperature: 27.0°C (81°F)
Dewpoint: 23.0°C (73°F) [RH = 79%]
Pressure (altimeter): 29.82 inches Hg (1010.0 mb)
Winds: from the SSE (150 degrees) at 9 MPH (8 knots; 4.1 m/s)
Visibility: 6 or more miles (10+ km)
Ceiling: at least 12,000 feet AGL
Clouds: few clouds at 2000 feet AGL
Weather: no significant weather observed at this time

METAR text: ZJSY 201000Z 16003MPS 120V190 9999 FEW020 28/23 Q1010 BECMG 08005MPS
Conditions at: ZJSY (SANYA/FENGHUANG , CN) observed 1000 UTC 20 March 2019
Temperature: 28.0°C (82°F)
Dewpoint: 23.0°C (73°F) [RH = 74%]
Pressure (altimeter): 29.82 inches Hg (1010.0 mb)
Winds: from the SSE (160 degrees) at 7 MPH (6 knots; 3.1 m/s)
Visibility: 6 or more miles (10+ km)
Ceiling: at least 12,000 feet AGL
Clouds: few clouds at 2000 feet AGL
Weather: no significant weather observed at this time

METAR text: ZJSY 200900Z 15004MPS 090V210 9999 FEW020 29/23 Q1010 NOSIG
Conditions at: ZJSY (SANYA/FENGHUANG , CN) observed 0900 UTC 20 March 2019
Temperature: 29.0°C (84°F)
Dewpoint: 23.0°C (73°F) [RH = 70%]
Pressure (altimeter): 29.82 inches Hg (1010.0 mb)
Winds: from the SSE (150 degrees) at 9 MPH (8 knots; 4.1 m/s)
Visibility: 6 or more miles (10+ km)
Ceiling: at least 12,000 feet AGL
Clouds: few clouds at 2000 feet AGL
Weather: no significant weather observed at this time

METAR text: ZJSY 200800Z 14004MPS 100V180 9999 FEW020 29/23 Q1010 NOSIG
Conditions at: ZJSY (SANYA/FENGHUANG , CN) observed 0800 UTC 20 March 2019
Temperature: 29.0°C (84°F)
Dewpoint: 23.0°C (73°F) [RH = 70%]
Pressure (altimeter): 29.82 inches Hg (1010.0 mb)
Winds: from the SE (140 degrees) at 9 MPH (8 knots; 4.1 m/s)
Visibility: 6 or more miles (10+ km)
Ceiling: at least 12,000 feet AGL
Clouds: few clouds at 2000 feet AGL
Weather: no significant weather observed at this time

METAR text: ZJSY 200700Z 15004MPS 110V240 9999 FEW020 30/23 Q1010 NOSIG
Conditions at: ZJSY (SANYA/FENGHUANG , CN) observed 0700 UTC 20 March 2019
Temperature: 30.0°C (86°F)
Dewpoint: 23.0°C (73°F) [RH = 66%]
Pressure (altimeter): 29.82 inches Hg (1010.0 mb)
Winds: from the SSE (150 degrees) at 9 MPH (8 knots; 4.1 m/s)
Visibility: 6 or more miles (10+ km)
Ceiling: at least 12,000 feet AGL
Clouds: few clouds at 2000 feet AGL
Weather: no significant weather observed at this time

METAR text: ZJSY 200600Z 17004MPS 110V230 CAVOK 30/23 Q1011 NOSIG
Conditions at: ZJSY (SANYA/FENGHUANG , CN) observed 0600 UTC 20 March 2019
Temperature: 30.0°C (86°F)
Dewpoint: 23.0°C (73°F) [RH = 66%]
Pressure (altimeter): 29.85 inches Hg (1011.0 mb)
Winds: from the S (170 degrees) at 9 MPH (8 knots; 4.1 m/s)
Visibility: 6 or more miles (10+ km)
Ceiling: ceiling and visibility are OK
Clouds: unknown
Weather: no significant weather observed at this time

METAR text: ZJSY 200500Z 18003MPS 130V280 9999 FEW020 30/23 Q1012 NOSIG
Conditions at: ZJSY (SANYA/FENGHUANG , CN) observed 0500 UTC 20 March 2019
Temperature: 30.0°C (86°F)
Dewpoint: 23.0°C (73°F) [RH = 66%]
Pressure (altimeter): 29.88 inches Hg (1012.0 mb)
Winds: from the S (180 degrees) at 7 MPH (6 knots; 3.1 m/s)
Visibility: 6 or more miles (10+ km)
Ceiling: at least 12,000 feet AGL
Clouds: few clouds at 2000 feet AGL
Weather: no significant weather observed at this time

METAR text: ZJSY 200400Z 17003MPS 120V260 9999 FEW020 29/22 Q1013 NOSIG
Conditions at: ZJSY (SANYA/FENGHUANG , CN) observed 0400 UTC 20 March 2019
Temperature: 29.0°C (84°F)
Dewpoint: 22.0°C (72°F) [RH = 66%]
Pressure (altimeter): 29.91 inches Hg (1013.0 mb)
Winds: from the S (170 degrees) at 7 MPH (6 knots; 3.1 m/s)
Visibility: 6 or more miles (10+ km)
Ceiling: at least 12,000 feet AGL
Clouds: few clouds at 2000 feet AGL
Weather: no significant weather observed at this time

METAR text: ZJSY 200300Z 14003MPS 100V210 9999 SCT020 30/22 Q1014 NOSIG
Conditions at: ZJSY (SANYA/FENGHUANG , CN) observed 0300 UTC 20 March 2019
Temperature: 30.0°C (86°F)
Dewpoint: 22.0°C (72°F) [RH = 62%]
Pressure (altimeter): 29.94 inches Hg (1014.0 mb)
Winds: from the SE (140 degrees) at 7 MPH (6 knots; 3.1 m/s)
Visibility: 6 or more miles (10+ km)
Ceiling: at least 12,000 feet AGL
Clouds: scattered clouds at 2000 feet AGL
Weather: no significant weather observed at this time

METAR text: ZJSY 200200Z 12003MPS 080V190 9999 SCT020 29/22 Q1014 NOSIG
Conditions at: ZJSY (SANYA/FENGHUANG , CN) observed 0200 UTC 20 March 2019
Temperature: 29.0°C (84°F)
Dewpoint: 22.0°C (72°F) [RH = 66%]
Pressure (altimeter): 29.94 inches Hg (1014.0 mb)
Winds: from the ESE (120 degrees) at 7 MPH (6 knots; 3.1 m/s)
Visibility: 6 or more miles (10+ km)
Ceiling: at least 12,000 feet AGL
Clouds: scattered clouds at 2000 feet AGL
Weather: no significant weather observed at this time

METAR text: ZJSY 200100Z 10003MPS 9999 SCT020 28/22 Q1014 NOSIG
Conditions at: ZJSY (SANYA/FENGHUANG , CN) observed 0100 UTC 20 March 2019
Temperature: 28.0°C (82°F)
Dewpoint: 22.0°C (72°F) [RH = 70%]
Pressure (altimeter): 29.94 inches Hg (1014.0 mb)
Winds: from the E (100 degrees) at 7 MPH (6 knots; 3.1 m/s)
Visibility: 6 or more miles (10+ km)
Ceiling: at least 12,000 feet AGL
Clouds: scattered clouds at 2000 feet AGL
Weather: no significant weather observed at this time

METAR text: ZJSY 200000Z VRB01MPS 9999 BKN020 26/22 Q1013 NOSIG
Conditions at: ZJSY (SANYA/FENGHUANG , CN) observed 0000 UTC 20 March 2019
Temperature: 26.0°C (79°F)
Dewpoint: 22.0°C (72°F) [RH = 79%]
Pressure (altimeter): 29.91 inches Hg (1013.0 mb)
Winds: variable direction winds at 2 MPH (2 knots; 1.0 m/s)
Visibility: 6 or more miles (10+ km)
Ceiling: 2000 feet AGL
Clouds: broken clouds at 2000 feet AGL
Weather: no significant weather observed at this time

METAR text: ZJSY 192300Z VRB02MPS 9999 BKN020 25/22 Q1012 NOSIG
Conditions at: ZJSY (SANYA/FENGHUANG , CN) observed 2300 UTC 19 March 2019
Temperature: 25.0°C (77°F)
Dewpoint: 22.0°C (72°F) [RH = 83%]
Pressure (altimeter): 29.88 inches Hg (1012.0 mb)
Winds: variable direction winds at 5 MPH (4 knots; 2.1 m/s)
Visibility: 6 or more miles (10+ km)
Ceiling: 2000 feet AGL
Clouds: broken clouds at 2000 feet AGL
Weather: no significant weather observed at this time

METAR text: ZJSY 192200Z 33002MPS 290V030 9999 SCT020 24/21 Q1011 NOSIG
Conditions at: ZJSY (SANYA/FENGHUANG , CN) observed 2200 UTC 19 March 2019
Temperature: 24.0°C (75°F)
Dewpoint: 21.0°C (70°F) [RH = 83%]
Pressure (altimeter): 29.85 inches Hg (1011.0 mb)
Winds: from the NNW (330 degrees) at 5 MPH (4 knots; 2.1 m/s)
Visibility: 6 or more miles (10+ km)
Ceiling: at least 12,000 feet AGL
Clouds: scattered clouds at 2000 feet AGL
Weather: no significant weather observed at this time

METAR text: ZJSY 192100Z 10003MPS 9999 FEW020 23/21 Q1011 NOSIG
Conditions at: ZJSY (SANYA/FENGHUANG , CN) observed 2100 UTC 19 March 2019
Temperature: 23.0°C (73°F)
Dewpoint: 21.0°C (70°F) [RH = 89%]
Pressure (altimeter): 29.85 inches Hg (1011.0 mb)
Winds: from the E (100 degrees) at 7 MPH (6 knots; 3.1 m/s)
Visibility: 6 or more miles (10+ km)
Ceiling: at least 12,000 feet AGL
Clouds: few clouds at 2000 feet AGL
Weather: no significant weather observed at this time

METAR text: ZJSY 192000Z 08003MPS 9999 SCT020 23/21 Q1011 NOSIG
Conditions at: ZJSY (SANYA/FENGHUANG , CN) observed 2000 UTC 19 March 2019
Temperature: 23.0°C (73°F)
Dewpoint: 21.0°C (70°F) [RH = 89%]
Pressure (altimeter): 29.85 inches Hg (1011.0 mb)
Winds: from the E (80 degrees) at 7 MPH (6 knots; 3.1 m/s)
Visibility: 6 or more miles (10+ km)
Ceiling: at least 12,000 feet AGL
Clouds: scattered clouds at 2000 feet AGL
Weather: no significant weather observed at this time

METAR text: ZJSY 191900Z 08002MPS 9999 BKN020 24/21 Q1012 NOSIG
Conditions at: ZJSY (SANYA/FENGHUANG , CN) observed 1900 UTC 19 March 2019
Temperature: 24.0°C (75°F)
Dewpoint: 21.0°C (70°F) [RH = 83%]
Pressure (altimeter): 29.88 inches Hg (1012.0 mb)
Winds: from the E (80 degrees) at 5 MPH (4 knots; 2.1 m/s)
Visibility: 6 or more miles (10+ km)
Ceiling: 2000 feet AGL
Clouds: broken clouds at 2000 feet AGL
Weather: no significant weather observed at this time

METAR text: ZJSY 191800Z 10003MPS 9999 SCT019 24/21 Q1012 NOSIG
Conditions at: ZJSY (SANYA/FENGHUANG , CN) observed 1800 UTC 19 March 2019
Temperature: 24.0°C (75°F)
Dewpoint: 21.0°C (70°F) [RH = 83%]
Pressure (altimeter): 29.88 inches Hg (1012.0 mb)
Winds: from the E (100 degrees) at 7 MPH (6 knots; 3.1 m/s)
Visibility: 6 or more miles (10+ km)
Ceiling: at least 12,000 feet AGL
Clouds: scattered clouds at 1900 feet AGL
Weather: no significant weather observed at this time

METAR text: ZJSY 191700Z 08002MPS 050V110 9999 SCT023 24/21 Q1013 NOSIG
Conditions at: ZJSY (SANYA/FENGHUANG , CN) observed 1700 UTC 19 March 2019
Temperature: 24.0°C (75°F)
Dewpoint: 21.0°C (70°F) [RH = 83%]
Pressure (altimeter): 29.91 inches Hg (1013.0 mb)
Winds: from the E (80 degrees) at 5 MPH (4 knots; 2.1 m/s)
Visibility: 6 or more miles (10+ km)
Ceiling: at least 12,000 feet AGL
Clouds: scattered clouds at 2300 feet AGL
Weather: no significant weather observed at this time

METAR text: ZJSY 191600Z 08004MPS 9999 BKN023 24/21 Q1013 NOSIG
Conditions at: ZJSY (SANYA/FENGHUANG , CN) observed 1600 UTC 19 March 2019
Temperature: 24.0°C (75°F)
Dewpoint: 21.0°C (70°F) [RH = 83%]
Pressure (altimeter): 29.91 inches Hg (1013.0 mb)
Winds: from the E (80 degrees) at 9 MPH (8 knots; 4.1 m/s)
Visibility: 6 or more miles (10+ km)
Ceiling: 2300 feet AGL
Clouds: broken clouds at 2300 feet AGL
Weather: no significant weather observed at this time

METAR text: ZJSY 191500Z 08003MPS 9999 BKN025 25/21 Q1013 NOSIG
Conditions at: ZJSY (SANYA/FENGHUANG , CN) observed 1500 UTC 19 March 2019
Temperature: 25.0°C (77°F)
Dewpoint: 21.0°C (70°F) [RH = 79%]
Pressure (altimeter): 29.91 inches Hg (1013.0 mb)
Winds: from the E (80 degrees) at 7 MPH (6 knots; 3.1 m/s)
Visibility: 6 or more miles (10+ km)
Ceiling: 2500 feet AGL
Clouds: broken clouds at 2500 feet AGL
Weather: no significant weather observed at this time

METAR text: ZJSY 191400Z 08004MPS CAVOK 24/21 Q1013 NOSIG
Conditions at: ZJSY (SANYA/FENGHUANG , CN) observed 1400 UTC 19 March 2019
Temperature: 24.0°C (75°F)
Dewpoint: 21.0°C (70°F) [RH = 83%]
Pressure (altimeter): 29.91 inches Hg (1013.0 mb)
Winds: from the E (80 degrees) at 9 MPH (8 knots; 4.1 m/s)
Visibility: 6 or more miles (10+ km)
Ceiling: ceiling and visibility are OK
Clouds: unknown
Weather: no significant weather observed at this time

METAR text: ZJSY 191300Z 09005MPS CAVOK 25/22 Q1012 NOSIG
Conditions at: ZJSY (SANYA/FENGHUANG , CN) observed 1300 UTC 19 March 2019
Temperature: 25.0°C (77°F)
Dewpoint: 22.0°C (72°F) [RH = 83%]
Pressure (altimeter): 29.88 inches Hg (1012.0 mb)
Winds: from the E (90 degrees) at 12 MPH (10 knots; 5.1 m/s)
Visibility: 6 or more miles (10+ km)
Ceiling: ceiling and visibility are OK
Clouds: unknown
Weather: no significant weather observed at this time

METAR text: ZJSY 191200Z 08004MPS CAVOK 26/21 Q1012 NOSIG
Conditions at: ZJSY (SANYA/FENGHUANG , CN) observed 1200 UTC 19 March 2019
Temperature: 26.0°C (79°F)
Dewpoint: 21.0°C (70°F) [RH = 74%]
Pressure (altimeter): 29.88 inches Hg (1012.0 mb)
Winds: from the E (80 degrees) at 9 MPH (8 knots; 4.1 m/s)
Visibility: 6 or more miles (10+ km)
Ceiling: ceiling and visibility are OK
Clouds: unknown
Weather: no significant weather observed at this time

METAR text: ZJSY 191100Z 14002MPS 110V200 CAVOK 26/22 Q1012 NOSIG
Conditions at: ZJSY (SANYA/FENGHUANG , CN) observed 1100 UTC 19 March 2019
Temperature: 26.0°C (79°F)
Dewpoint: 22.0°C (72°F) [RH = 79%]
Pressure (altimeter): 29.88 inches Hg (1012.0 mb)
Winds: from the SE (140 degrees) at 5 MPH (4 knots; 2.1 m/s)
Visibility: 6 or more miles (10+ km)
Ceiling: ceiling and visibility are OK
Clouds: unknown
Weather: no significant weather observed at this time

METAR text: ZJSY 191000Z 14004MPS 110V190 CAVOK 27/22 Q1011 NOSIG
Conditions at: ZJSY (SANYA/FENGHUANG , CN) observed 1000 UTC 19 March 2019
Temperature: 27.0°C (81°F)
Dewpoint: 22.0°C (72°F) [RH = 74%]
Pressure (altimeter): 29.85 inches Hg (1011.0 mb)
Winds: from the SE (140 degrees) at 9 MPH (8 knots; 4.1 m/s)
Visibility: 6 or more miles (10+ km)
Ceiling: ceiling and visibility are OK
Clouds: unknown
Weather: no significant weather observed at this time

METAR text: ZJSY 190900Z 15004MPS 120V180 9999 FEW023 28/22 Q1011 NOSIG
Conditions at: ZJSY (SANYA/FENGHUANG , CN) observed 0900 UTC 19 March 2019
Temperature: 28.0°C (82°F)
Dewpoint: 22.0°C (72°F) [RH = 70%]
Pressure (altimeter): 29.85 inches Hg (1011.0 mb)
Winds: from the SSE (150 degrees) at 9 MPH (8 knots; 4.1 m/s)
Visibility: 6 or more miles (10+ km)
Ceiling: at least 12,000 feet AGL
Clouds: few clouds at 2300 feet AGL
Weather: no significant weather observed at this time

METAR text: ZJSY 190800Z 17005MPS 130V240 9999 FEW023 28/22 Q1011 NOSIG
Conditions at: ZJSY (SANYA/FENGHUANG , CN) observed 0800 UTC 19 March 2019
Temperature: 28.0°C (82°F)
Dewpoint: 22.0°C (72°F) [RH = 70%]
Pressure (altimeter): 29.85 inches Hg (1011.0 mb)
Winds: from the S (170 degrees) at 12 MPH (10 knots; 5.1 m/s)
Visibility: 6 or more miles (10+ km)
Ceiling: at least 12,000 feet AGL
Clouds: few clouds at 2300 feet AGL
Weather: no significant weather observed at this time

METAR text: ZJSY 190700Z 16004MPS 130V200 9999 FEW023 30/21 Q1012 NOSIG
Conditions at: ZJSY (SANYA/FENGHUANG , CN) observed 0700 UTC 19 March 2019
Temperature: 30.0°C (86°F)
Dewpoint: 21.0°C (70°F) [RH = 59%]
Pressure (altimeter): 29.88 inches Hg (1012.0 mb)
Winds: from the SSE (160 degrees) at 9 MPH (8 knots; 4.1 m/s)
Visibility: 6 or more miles (10+ km)
Ceiling: at least 12,000 feet AGL
Clouds: few clouds at 2300 feet AGL
Weather: no significant weather observed at this time

METAR text: ZJSY 190600Z 16004MPS 090V220 9999 FEW023 30/22 Q1012 NOSIG
Conditions at: ZJSY (SANYA/FENGHUANG , CN) observed 0600 UTC 19 March 2019
Temperature: 30.0°C (86°F)
Dewpoint: 22.0°C (72°F) [RH = 62%]
Pressure (altimeter): 29.88 inches Hg (1012.0 mb)
Winds: from the SSE (160 degrees) at 9 MPH (8 knots; 4.1 m/s)
Visibility: 6 or more miles (10+ km)
Ceiling: at least 12,000 feet AGL
Clouds: few clouds at 2300 feet AGL
Weather: no significant weather observed at this time

METAR text: ZJSY 190500Z 17004MPS 130V210 9999 SCT023 29/22 Q1013 NOSIG
Conditions at: ZJSY (SANYA/FENGHUANG , CN) observed 0500 UTC 19 March 2019
Temperature: 29.0°C (84°F)
Dewpoint: 22.0°C (72°F) [RH = 66%]
Pressure (altimeter): 29.91 inches Hg (1013.0 mb)
Winds: from the S (170 degrees) at 9 MPH (8 knots; 4.1 m/s)
Visibility: 6 or more miles (10+ km)
Ceiling: at least 12,000 feet AGL
Clouds: scattered clouds at 2300 feet AGL
Weather: no significant weather observed at this time

METAR text: ZJSY 190400Z 16004MPS 120V230 9999 SCT023 29/22 Q1014 NOSIG
Conditions at: ZJSY (SANYA/FENGHUANG , CN) observed 0400 UTC 19 March 2019
Temperature: 29.0°C (84°F)
Dewpoint: 22.0°C (72°F) [RH = 66%]
Pressure (altimeter): 29.94 inches Hg (1014.0 mb)
Winds: from the SSE (160 degrees) at 9 MPH (8 knots; 4.1 m/s)
Visibility: 6 or more miles (10+ km)
Ceiling: at least 12,000 feet AGL
Clouds: scattered clouds at 2300 feet AGL
Weather: no significant weather observed at this time

Forecast for: ZJSY (SANYA/FENGHUANG , CN)
Text: TAF ZJSY 200900Z 2012/2112 10004MPS 9999 FEW020 TX30/2106Z TN23/2021Z
Forecast period: 1200 UTC 20 March 2019 to 1200 UTC 21 March 2019
Forecast type: FROM: standard forecast or significant change
Winds: from the E (100 degrees) at 9 MPH (8 knots; 4.1 m/s)
Visibility: 6 or more miles 10+ km)
Ceiling: at least 12,000 feet AGL
Clouds: few clouds at 2000 feet AGL
Weather: no significant weather forecast for this period